createdAt,value
2022-11-01T05:12:58.899Z,27.37
2022-11-01T05:15:32.001Z,27.50
2022-11-01T05:18:04.994Z,27.48
2022-11-01T05:20:37.691Z,27.58
2022-11-01T05:23:10.682Z,27.53
2022-11-01T05:25:43.140Z,27.59
2022-11-01T05:28:18.153Z,27.71
2022-11-01T05:30:53.005Z,27.72
2022-11-01T05:33:31.127Z,27.82
2022-11-01T05:36:05.308Z,27.96
2022-11-01T05:38:41.654Z,27.82
2022-11-01T05:43:47.540Z,28.31
2022-11-01T05:46:20.407Z,28.06
2022-11-01T05:48:52.573Z,28.09
2022-11-01T05:51:25.120Z,28.13
2022-11-01T05:53:57.885Z,28.20
2022-11-01T05:56:30.569Z,28.04
2022-11-01T05:59:05.431Z,28.09
2022-11-01T06:01:38.149Z,28.29
2022-11-01T06:04:12.161Z,28.37
2022-11-01T06:06:45.186Z,28.26
2022-11-01T06:09:18.490Z,28.37
2022-11-01T06:11:51.055Z,28.14
2022-11-01T06:14:24.914Z,28.42
2022-11-01T06:16:57.373Z,28.34
2022-11-01T06:19:30.271Z,28.64
2022-11-01T06:22:03.107Z,28.54
2022-11-01T06:24:36.232Z,28.56
2022-11-01T06:27:11.624Z,28.65
2022-11-01T06:29:46.829Z,28.59
2022-11-01T06:32:18.750Z,28.64
2022-11-01T06:34:51.239Z,28.74
2022-11-01T06:37:23.763Z,28.93
2022-11-01T06:39:56.290Z,28.99
2022-11-01T06:42:28.682Z,28.92
2022-11-01T06:45:03.260Z,28.72
2022-11-01T06:47:35.645Z,28.83
2022-11-01T06:50:09.339Z,28.83
2022-11-01T06:52:41.469Z,29.07
2022-11-01T06:55:14.488Z,29.10
2022-11-01T06:57:47.154Z,29.05
2022-11-01T07:00:21.744Z,29.15
2022-11-01T07:03:02.855Z,29.20
2022-11-01T07:05:37.834Z,29.25
2022-11-01T07:08:13.100Z,28.97
2022-11-01T07:10:47.892Z,29.13
2022-11-01T07:13:20.594Z,29.27
2022-11-01T07:15:54.364Z,29.25
2022-11-01T07:18:27.347Z,29.34
2022-11-01T07:21:00.626Z,29.21
2022-11-01T07:23:33.260Z,29.32
2022-11-01T07:26:05.978Z,29.47
2022-11-01T07:28:39.311Z,29.57
2022-11-01T07:31:13.677Z,29.37
2022-11-01T07:33:45.874Z,29.64
2022-11-01T07:36:18.517Z,29.58
2022-11-01T07:38:51.090Z,29.58
2022-11-01T07:41:23.501Z,29.68
2022-11-01T07:43:57.015Z,29.66
2022-11-01T07:46:32.114Z,29.81
2022-11-01T07:49:04.966Z,29.69
2022-11-01T07:51:37.599Z,29.71
2022-11-01T07:54:10.578Z,29.81
2022-11-01T07:56:43.271Z,29.73
2022-11-01T07:59:15.989Z,29.69
2022-11-01T08:01:49.965Z,29.77
2022-11-01T08:04:22.820Z,29.83
2022-11-01T08:06:56.273Z,29.67
2022-11-01T08:09:29.006Z,29.85
2022-11-01T08:12:01.278Z,29.83
2022-11-01T08:14:33.716Z,29.79
2022-11-01T08:17:07.813Z,29.75
2022-11-01T08:19:40.908Z,29.90
2022-11-01T08:22:13.088Z,29.83
2022-11-01T08:24:45.746Z,29.89
2022-11-01T08:27:18.606Z,30.02
2022-11-01T08:29:50.879Z,30.00
2022-11-01T08:32:26.328Z,29.98
2022-11-01T08:34:58.413Z,29.88
2022-11-01T08:37:31.322Z,30.00
2022-11-01T08:40:03.637Z,29.96
2022-11-01T08:42:35.768Z,30.00
2022-11-01T08:45:09.017Z,29.92
2022-11-01T08:47:42.821Z,30.18
2022-11-01T08:50:17.024Z,30.09
2022-11-01T08:52:49.209Z,30.13
2022-11-01T08:55:21.710Z,29.96
2022-11-01T08:57:54.593Z,30.03
2022-11-01T09:00:27.015Z,30.16
2022-11-01T09:03:03.980Z,30.21
2022-11-01T09:05:37.082Z,30.18
2022-11-01T09:08:10.114Z,30.15
2022-11-01T09:10:45.711Z,30.25
2022-11-01T09:13:19.167Z,30.14
2022-11-01T09:15:51.680Z,30.22
2022-11-01T09:18:25.946Z,30.28
2022-11-01T09:20:58.676Z,30.17
2022-11-01T09:23:31.757Z,30.27
2022-11-01T09:26:07.282Z,30.32
2022-11-01T09:28:41.008Z,30.27
2022-11-01T09:31:20.813Z,30.15
2022-11-01T09:33:59.192Z,30.30
2022-11-01T09:36:32.579Z,30.39
2022-11-01T09:39:05.029Z,30.38
2022-11-01T09:41:44.230Z,30.37
2022-11-01T09:44:21.169Z,30.40
2022-11-01T09:47:01.331Z,30.34
2022-11-01T09:49:39.956Z,30.32
2022-11-01T09:52:19.630Z,30.26
2022-11-01T09:54:52.122Z,30.38
2022-11-01T09:57:31.284Z,30.38
2022-11-01T10:00:09.487Z,30.35
2022-11-01T10:03:05.948Z,30.38
2022-11-01T10:05:58.146Z,30.26
2022-11-01T10:08:44.950Z,30.38
2022-11-01T10:11:36.864Z,30.37
2022-11-01T10:14:16.741Z,30.39
2022-11-01T10:16:56.309Z,30.28
2022-11-01T10:19:32.112Z,30.19
2022-11-01T10:22:13.224Z,30.13
2022-11-01T10:24:51.698Z,30.05
2022-11-01T10:27:34.611Z,30.01
2022-11-01T10:30:16.055Z,30.03
2022-11-01T10:32:54.246Z,29.99
2022-11-01T10:35:31.460Z,29.89
2022-11-01T10:38:25.000Z,29.90
2022-11-01T10:41:09.866Z,29.96
2022-11-01T10:43:47.015Z,30.01
2022-11-01T10:46:23.066Z,30.01
2022-11-01T10:48:59.053Z,29.89
2022-11-01T10:51:35.118Z,29.69
2022-11-01T10:54:17.751Z,29.69
2022-11-01T10:56:54.400Z,29.68
2022-11-01T10:59:32.508Z,29.58
2022-11-01T11:02:07.560Z,29.54
2022-11-01T11:04:41.056Z,29.52
2022-11-01T11:07:19.941Z,29.49
2022-11-01T11:09:57.930Z,29.47
2022-11-01T11:12:32.315Z,29.48
2022-11-01T11:15:09.590Z,29.45
2022-11-01T11:17:46.488Z,29.49
2022-11-01T11:20:25.416Z,29.45
2022-11-01T11:22:57.965Z,29.46
2022-11-01T11:25:39.736Z,29.44
2022-11-01T11:28:27.318Z,29.46
2022-11-01T11:30:59.658Z,29.41
2022-11-01T11:33:33.089Z,29.36
2022-11-01T11:36:06.765Z,29.34
2022-11-01T11:38:47.402Z,29.33
2022-11-01T11:41:33.289Z,29.26
2022-11-01T11:44:05.474Z,29.23
2022-11-01T11:46:38.273Z,29.19
2022-11-01T11:49:30.643Z,29.15
2022-11-01T11:52:04.056Z,29.09
2022-11-01T11:54:39.779Z,29.08
2022-11-01T11:57:18.955Z,29.07
2022-11-01T11:59:56.928Z,29.08
2022-11-01T12:02:33.330Z,29.04
2022-11-01T12:05:10.958Z,29.01
2022-11-01T12:07:51.281Z,28.94
2022-11-01T12:10:36.509Z,28.85
2022-11-01T12:13:29.676Z,28.82
2022-11-01T12:19:01.373Z,28.73
2022-11-01T12:21:38.225Z,28.68
2022-11-01T12:24:20.538Z,28.61
2022-11-01T12:26:55.454Z,28.60
2022-11-01T12:29:35.502Z,28.58
2022-11-01T12:32:14.651Z,28.58
2022-11-01T12:34:49.765Z,28.52
2022-11-01T12:37:25.874Z,28.53
2022-11-01T12:40:04.196Z,28.52
2022-11-01T12:42:43.987Z,28.75
2022-11-01T12:45:26.176Z,28.79
2022-11-01T12:48:03.561Z,28.50
2022-11-01T12:50:47.380Z,28.50
2022-11-01T12:53:24.133Z,28.41
2022-11-01T12:55:56.777Z,28.40
2022-11-01T12:58:33.735Z,28.34
2022-11-01T13:01:25.968Z,28.67
2022-11-01T13:04:10.180Z,28.42
2022-11-01T13:07:24.855Z,28.35
2022-11-01T13:10:06.918Z,28.44
2022-11-01T13:12:49.770Z,28.35
2022-11-01T13:15:28.385Z,28.38
2022-11-01T13:18:13.171Z,28.37
2022-11-01T13:20:57.385Z,28.33
2022-11-01T13:23:36.951Z,28.31
2022-11-01T13:26:18.572Z,28.28
2022-11-01T13:29:06.067Z,28.21
2022-11-01T13:31:50.211Z,28.12
2022-11-01T13:34:40.824Z,28.17
2022-11-01T13:37:24.103Z,28.22
2022-11-01T13:40:11.460Z,28.25
2022-11-01T13:42:49.356Z,28.36
2022-11-01T13:45:46.449Z,28.40
2022-11-01T13:48:29.742Z,28.22
2022-11-01T13:51:29.142Z,28.21
2022-11-01T13:54:08.079Z,28.17
2022-11-01T13:56:46.336Z,28.19
2022-11-01T13:59:33.180Z,28.17
2022-11-01T14:02:40.950Z,28.13
2022-11-01T14:05:14.518Z,28.09
2022-11-01T14:08:15.449Z,28.07
2022-11-01T14:10:54.577Z,28.07
2022-11-01T14:13:42.674Z,28.10
2022-11-01T14:16:25.236Z,28.06
2022-11-01T14:19:22.907Z,28.05
2022-11-01T14:21:57.259Z,28.02
2022-11-01T14:24:35.692Z,27.97
2022-11-01T14:27:24.701Z,27.96
2022-11-01T14:29:57.599Z,27.94
2022-11-01T14:32:33.124Z,27.84
2022-11-01T14:35:24.696Z,27.85
2022-11-01T14:37:59.972Z,27.86
2022-11-01T14:40:37.852Z,27.89
2022-11-01T14:43:18.240Z,27.93
2022-11-01T14:45:56.307Z,27.95
2022-11-01T14:48:35.201Z,27.81
2022-11-01T14:51:12.787Z,27.73
2022-11-01T14:53:47.221Z,27.71
2022-11-01T14:56:24.365Z,27.69
2022-11-01T14:59:16.287Z,27.51
2022-11-01T15:01:51.728Z,27.55
2022-11-01T15:04:26.055Z,27.47
2022-11-01T15:07:00.624Z,27.45
2022-11-01T15:09:35.362Z,27.32
2022-11-01T15:12:13.147Z,27.31
2022-11-01T15:14:48.628Z,27.27
2022-11-01T15:17:26.241Z,27.30
2022-11-01T15:20:00.082Z,27.30
2022-11-01T15:22:34.967Z,27.25
2022-11-01T15:25:09.217Z,27.26
2022-11-01T15:27:45.711Z,27.16
2022-11-01T15:30:24.759Z,27.12
2022-11-01T15:33:16.174Z,27.03
2022-11-01T15:35:57.726Z,27.02
2022-11-01T15:38:31.160Z,27.18
2022-11-01T15:41:22.085Z,26.67
2022-11-01T15:44:01.190Z,26.81
2022-11-01T15:46:36.828Z,27.16
2022-11-01T15:49:12.874Z,26.94
2022-11-01T15:51:51.089Z,27.05
2022-11-01T15:54:37.472Z,27.06
2022-11-01T15:57:19.701Z,27.06
2022-11-01T16:00:01.702Z,26.87
2022-11-01T16:02:49.395Z,26.86
2022-11-01T16:05:25.342Z,26.93
2022-11-01T16:07:58.901Z,27.05
2022-11-01T16:10:32.873Z,27.00
2022-11-01T16:13:08.869Z,26.91
2022-11-01T16:15:42.933Z,27.05
2022-11-01T16:18:20.463Z,26.96
2022-11-01T16:20:54.079Z,26.86
2022-11-01T16:23:31.148Z,26.70
2022-11-01T16:26:09.172Z,26.80
2022-11-01T16:28:44.785Z,26.78
2022-11-01T16:31:27.486Z,26.77
2022-11-01T16:34:01.115Z,26.76
2022-11-01T16:36:43.045Z,26.70
2022-11-01T16:39:31.355Z,26.75
2022-11-01T16:42:04.347Z,26.75
2022-11-01T16:44:36.702Z,26.73
2022-11-01T16:47:10.732Z,26.66
2022-11-01T16:49:49.875Z,26.59
2022-11-01T16:52:23.580Z,26.63
2022-11-01T16:54:56.527Z,26.62
2022-11-01T16:57:30.551Z,26.64
2022-11-01T17:00:03.117Z,26.54
2022-11-01T17:02:37.783Z,26.56
2022-11-01T17:05:22.698Z,26.47
2022-11-01T17:07:55.339Z,26.59
2022-11-01T17:10:29.103Z,26.56
2022-11-01T17:13:05.088Z,26.43
2022-11-01T17:15:42.193Z,26.47
2022-11-01T17:18:22.063Z,26.43
2022-11-01T17:20:57.955Z,26.36
2022-11-01T17:23:31.431Z,26.41
2022-11-01T17:26:05.024Z,26.34
2022-11-01T17:28:37.975Z,26.36
2022-11-01T17:31:10.402Z,26.35
2022-11-01T17:33:44.483Z,26.34
2022-11-01T17:36:19.448Z,26.30
2022-11-01T17:38:51.910Z,26.31
2022-11-01T17:41:23.950Z,26.29
2022-11-01T17:43:57.011Z,26.28
2022-11-01T17:46:30.081Z,26.24
2022-11-01T17:49:04.499Z,26.39
2022-11-01T17:51:36.914Z,26.33
2022-11-01T17:54:09.364Z,26.15
2022-11-01T17:56:41.290Z,26.15
2022-11-01T17:59:13.708Z,26.14
2022-11-01T18:01:46.611Z,26.15
2022-11-01T18:04:21.036Z,26.11
2022-11-01T18:06:53.735Z,26.11
2022-11-01T18:09:27.819Z,26.18
2022-11-01T18:12:08.721Z,26.09
2022-11-01T18:14:55.190Z,26.23
2022-11-01T18:17:53.893Z,26.32
2022-11-01T18:20:42.295Z,26.32
2022-11-01T18:23:17.483Z,26.31
2022-11-01T18:25:52.204Z,26.41
2022-11-01T18:28:27.900Z,26.22
2022-11-01T18:31:01.778Z,26.28
2022-11-01T18:33:40.940Z,26.29
2022-11-01T18:36:20.588Z,26.32
2022-11-01T18:39:02.916Z,26.14
2022-11-01T18:41:34.999Z,26.15
2022-11-01T18:44:14.373Z,26.18
2022-11-01T18:46:54.977Z,26.19
2022-11-01T18:49:30.280Z,26.12
2022-11-01T18:52:04.165Z,26.04
2022-11-01T18:54:37.067Z,26.04
2022-11-01T18:57:15.905Z,26.10
2022-11-01T18:59:51.546Z,25.99
2022-11-01T19:02:28.538Z,25.95
2022-11-01T19:05:14.799Z,25.99
2022-11-01T19:08:11.118Z,25.89
2022-11-01T19:10:44.751Z,25.96
2022-11-01T19:13:24.037Z,25.99
2022-11-01T19:15:59.644Z,25.92
2022-11-01T19:18:33.850Z,25.96
2022-11-01T19:21:06.878Z,25.80
2022-11-01T19:23:42.182Z,25.80
2022-11-01T19:26:23.759Z,25.81
2022-11-01T19:28:56.674Z,25.81
2022-11-01T19:31:32.727Z,25.82
2022-11-01T19:34:08.890Z,25.84
2022-11-01T19:36:43.692Z,25.83
2022-11-01T19:39:25.786Z,25.90
2022-11-01T19:42:02.376Z,25.74
2022-11-01T19:44:35.288Z,25.80
2022-11-01T19:47:33.300Z,25.65
2022-11-01T19:50:05.689Z,25.74
2022-11-01T19:52:44.580Z,25.69
2022-11-01T19:55:48.317Z,25.61
2022-11-01T19:58:29.348Z,25.81
2022-11-01T20:01:31.636Z,25.80
2022-11-01T20:04:05.798Z,25.81
2022-11-01T20:06:42.470Z,25.84
2022-11-01T20:09:19.988Z,25.82
2022-11-01T20:11:54.704Z,25.70
2022-11-01T20:14:27.306Z,25.73
2022-11-01T20:17:00.253Z,25.50
2022-11-01T20:19:33.737Z,25.61
2022-11-01T20:22:06.046Z,25.65
2022-11-01T20:24:39.166Z,25.67
2022-11-01T20:27:12.752Z,25.64
2022-11-01T20:29:45.001Z,25.57
2022-11-01T20:32:17.065Z,25.69
2022-11-01T20:34:49.517Z,25.71
2022-11-01T20:37:28.564Z,25.59
2022-11-01T20:40:01.360Z,25.47
2022-11-01T20:42:35.447Z,25.49
2022-11-01T20:45:08.639Z,25.52
2022-11-01T20:47:46.118Z,25.53
2022-11-01T20:50:20.448Z,25.53
2022-11-01T20:52:52.550Z,25.65
2022-11-01T20:55:25.168Z,25.74
2022-11-01T20:57:58.846Z,25.70
2022-11-01T21:00:31.480Z,25.69
2022-11-01T21:03:08.020Z,25.38
2022-11-01T21:05:40.170Z,25.41
2022-11-01T21:08:20.200Z,25.44
2022-11-01T21:11:01.070Z,25.48
2022-11-01T21:13:38.257Z,25.59
2022-11-01T21:16:20.174Z,25.60
2022-11-01T21:18:54.256Z,25.61
2022-11-01T21:21:46.577Z,25.43
2022-11-01T21:24:37.486Z,25.25
2022-11-01T21:30:17.579Z,25.30
2022-11-01T21:32:50.588Z,25.15
2022-11-01T21:35:42.405Z,25.20
2022-11-01T21:38:39.214Z,25.18
2022-11-01T21:41:36.707Z,25.20
2022-11-01T21:44:27.263Z,25.35
2022-11-01T21:47:13.491Z,25.20
2022-11-01T21:49:46.185Z,25.16
2022-11-01T21:52:18.814Z,25.24
2022-11-01T21:54:51.923Z,25.19
2022-11-01T21:57:24.483Z,25.09
2022-11-01T21:59:57.574Z,25.06
2022-11-01T22:02:31.563Z,25.13
2022-11-01T22:05:04.495Z,25.20
2022-11-01T22:07:36.754Z,25.25
2022-11-01T22:10:10.136Z,25.16
2022-11-01T22:12:42.627Z,25.11
2022-11-01T22:15:15.721Z,25.03
2022-11-01T22:17:49.547Z,24.93
2022-11-01T22:20:22.099Z,25.08
2022-11-01T22:22:54.245Z,25.07
2022-11-01T22:25:26.725Z,25.01
2022-11-01T22:27:59.407Z,25.16
2022-11-01T22:30:31.623Z,25.22
2022-11-01T22:33:07.352Z,24.96
2022-11-01T22:35:39.942Z,24.89
2022-11-01T22:38:19.793Z,24.97
2022-11-01T22:43:32.134Z,25.09
2022-11-01T22:46:05.936Z,24.88
2022-11-01T22:48:40.053Z,24.74
2022-11-01T22:51:20.145Z,24.77
2022-11-01T22:53:54.580Z,24.87
2022-11-01T22:56:27.204Z,24.85
2022-11-01T22:58:59.923Z,24.77
2022-11-01T23:01:34.620Z,24.69
2022-11-01T23:04:22.993Z,24.72
2022-11-01T23:06:55.457Z,24.75
2022-11-01T23:09:28.002Z,24.74
2022-11-01T23:12:38.354Z,24.81
2022-11-01T23:15:22.195Z,24.74
2022-11-01T23:17:54.932Z,24.67
2022-11-01T23:20:28.678Z,24.71
2022-11-01T23:23:02.717Z,24.77
2022-11-01T23:25:35.320Z,24.70
2022-11-01T23:28:08.127Z,24.68
2022-11-01T23:30:40.699Z,24.54
2022-11-01T23:33:16.099Z,24.47
2022-11-01T23:35:55.879Z,24.47
2022-11-01T23:38:36.416Z,24.30
2022-11-01T23:41:09.271Z,24.40
2022-11-01T23:43:43.956Z,24.38
2022-11-01T23:46:16.736Z,24.33
2022-11-01T23:48:49.873Z,24.34
2022-11-01T23:51:24.763Z,24.39
2022-11-01T23:54:01.509Z,24.40
2022-11-01T23:56:34.712Z,24.40
2022-11-01T23:59:08.433Z,24.44
